createdAt,value
2023-05-10T00:02:15.661Z,100.00
2023-05-10T00:05:17.495Z,100.00
2023-05-10T00:08:19.183Z,100.00
2023-05-10T00:11:22.877Z,100.00
2023-05-10T00:14:24.818Z,100.00
2023-05-10T00:17:26.560Z,100.00
2023-05-10T00:20:28.266Z,100.00
2023-05-10T00:23:30.024Z,100.00
2023-05-10T00:26:31.722Z,100.00
2023-05-10T00:29:34.844Z,100.00
2023-05-10T00:32:36.523Z,100.00
2023-05-10T00:35:39.009Z,100.00
2023-05-10T00:38:41.474Z,100.00
2023-05-10T00:41:43.130Z,100.00
2023-05-10T00:44:44.955Z,100.00
2023-05-10T00:47:47.217Z,100.00
2023-05-10T00:50:49.274Z,100.00
2023-05-10T00:53:52.406Z,100.00
2023-05-10T00:56:54.992Z,100.00
2023-05-10T00:59:56.894Z,100.00
2023-05-10T01:02:59.402Z,100.00
2023-05-10T01:06:01.254Z,100.00
2023-05-10T01:09:03.134Z,100.00
2023-05-10T01:12:08.008Z,100.00
2023-05-10T01:15:11.915Z,100.00
2023-05-10T01:18:13.787Z,100.00
2023-05-10T01:21:33.189Z,100.00
2023-05-10T01:24:49.883Z,100.00
2023-05-10T01:28:06.671Z,100.00
2023-05-10T01:31:14.402Z,100.00
2023-05-10T01:34:27.091Z,100.00
2023-05-10T01:37:53.650Z,100.00
2023-05-10T01:41:30.181Z,100.00
2023-05-10T01:44:54.404Z,100.00
2023-05-10T01:48:11.365Z,100.00
2023-05-10T01:51:18.997Z,100.00
2023-05-10T01:54:22.741Z,100.00
2023-05-10T01:57:28.878Z,100.00
2023-05-10T02:00:32.399Z,100.00
2023-05-10T02:03:37.411Z,100.00
2023-05-10T02:06:42.366Z,100.00
2023-05-10T02:09:49.002Z,100.00
2023-05-10T02:12:53.152Z,100.00
2023-05-10T02:15:56.144Z,100.00
2023-05-10T02:19:00.294Z,100.00
2023-05-10T02:22:03.681Z,100.00
2023-05-10T02:25:06.844Z,100.00
2023-05-10T02:28:09.647Z,100.00
2023-05-10T02:31:11.954Z,100.00
2023-05-10T02:34:14.646Z,100.00
2023-05-10T02:37:19.410Z,100.00
2023-05-10T02:40:23.994Z,100.00
2023-05-10T02:43:26.731Z,100.00
2023-05-10T02:46:28.688Z,100.00
2023-05-10T02:49:31.399Z,100.00
2023-05-10T02:52:41.446Z,100.00
2023-05-10T02:55:46.251Z,100.00
2023-05-10T02:58:47.989Z,100.00
2023-05-10T03:01:49.732Z,100.00
2023-05-10T03:04:52.182Z,100.00
2023-05-10T03:07:55.546Z,100.00
2023-05-10T03:11:15.687Z,100.00
2023-05-10T03:14:24.923Z,100.00
2023-05-10T03:17:35.730Z,100.00
2023-05-10T03:20:42.686Z,100.00
2023-05-10T03:23:49.165Z,100.00
2023-05-10T03:26:54.006Z,100.00
2023-05-10T03:29:57.094Z,100.00
2023-05-10T03:32:59.191Z,100.00
2023-05-10T03:36:01.470Z,100.00
2023-05-10T03:39:03.769Z,100.00
2023-05-10T03:42:06.088Z,100.00
2023-05-10T03:45:08.704Z,100.00
2023-05-10T03:48:10.515Z,100.00
2023-05-10T03:51:12.238Z,100.00
2023-05-10T03:54:15.899Z,100.00
2023-05-10T03:57:17.595Z,100.00
2023-05-10T04:00:19.832Z,100.00
2023-05-10T04:03:26.884Z,100.00
2023-05-10T04:06:28.692Z,100.00
2023-05-10T04:09:30.643Z,100.00
2023-05-10T04:12:32.406Z,100.00
2023-05-10T04:15:34.082Z,100.00
2023-05-10T04:18:36.205Z,100.00
2023-05-10T04:21:37.876Z,100.00
2023-05-10T04:24:39.577Z,100.00
2023-05-10T04:27:41.220Z,100.00
2023-05-10T04:30:43.034Z,100.00
2023-05-10T04:33:44.636Z,100.00
2023-05-10T04:36:46.683Z,100.00
2023-05-10T04:39:48.352Z,100.00
2023-05-10T04:42:50.061Z,100.00
2023-05-10T04:45:51.752Z,100.00
2023-05-10T04:48:53.344Z,100.00
2023-05-10T04:51:55.227Z,100.00
2023-05-10T04:54:59.595Z,100.00
2023-05-10T04:58:01.676Z,100.00
2023-05-10T05:01:11.564Z,100.00
2023-05-10T05:04:13.339Z,100.00
2023-05-10T05:07:15.006Z,100.00
2023-05-10T05:10:17.023Z,100.00
2023-05-10T05:13:19.760Z,100.00
2023-05-10T05:16:21.532Z,100.00
2023-05-10T05:19:23.871Z,100.00
2023-05-10T05:22:28.557Z,100.00
2023-05-10T05:25:30.362Z,100.00
2023-05-10T05:28:35.009Z,100.00
2023-05-10T05:31:36.742Z,100.00
2023-05-10T05:34:38.450Z,100.00
2023-05-10T05:37:40.766Z,100.00
2023-05-10T05:40:42.449Z,100.00
2023-05-10T05:43:44.100Z,100.00
2023-05-10T05:46:46.337Z,100.00
2023-05-10T05:49:48.203Z,100.00
2023-05-10T05:52:49.923Z,100.00
2023-05-10T05:55:55.910Z,100.00
2023-05-10T05:58:57.592Z,100.00
2023-05-10T06:01:59.755Z,100.00
2023-05-10T06:05:01.442Z,100.00
2023-05-10T06:08:03.130Z,100.00
2023-05-10T06:11:05.222Z,100.00
2023-05-10T06:14:08.799Z,100.00
2023-05-10T06:17:10.545Z,100.00
2023-05-10T06:20:12.955Z,100.00
2023-05-10T06:23:14.906Z,100.00
2023-05-10T06:26:16.829Z,100.00
2023-05-10T06:29:18.652Z,100.00
2023-05-10T06:32:20.254Z,100.00
2023-05-10T06:35:22.028Z,100.00
2023-05-10T06:38:23.779Z,100.00
2023-05-10T06:41:25.456Z,100.00
2023-05-10T06:44:27.123Z,100.00
2023-05-10T06:47:28.902Z,100.00
2023-05-10T06:50:30.627Z,100.00
2023-05-10T06:53:32.345Z,100.00
2023-05-10T06:56:34.130Z,100.00
2023-05-10T06:59:35.973Z,100.00
2023-05-10T07:02:37.742Z,100.00
2023-05-10T07:05:39.783Z,100.00
2023-05-10T07:08:41.564Z,100.00
2023-05-10T07:11:43.234Z,100.00
2023-05-10T07:14:44.994Z,100.00
2023-05-10T07:17:46.819Z,100.00
2023-05-10T07:20:48.734Z,100.00
2023-05-10T07:23:50.836Z,100.00
2023-05-10T07:26:52.462Z,100.00
2023-05-10T07:29:54.233Z,100.00
2023-05-10T07:32:56.002Z,100.00
2023-05-10T07:35:57.768Z,100.00
2023-05-10T07:38:59.497Z,100.00
2023-05-10T07:42:01.232Z,100.00
2023-05-10T07:45:03.079Z,100.00
2023-05-10T07:48:04.804Z,100.00
2023-05-10T07:51:08.171Z,100.00
2023-05-10T07:54:09.824Z,100.00
2023-05-10T07:57:11.553Z,100.00
2023-05-10T08:00:14.652Z,100.00
2023-05-10T08:03:16.790Z,100.00
2023-05-10T08:06:19.569Z,100.00
2023-05-10T08:09:24.946Z,100.00
2023-05-10T08:12:26.842Z,100.00
2023-05-10T08:15:28.471Z,100.00
2023-05-10T08:18:30.223Z,100.00
2023-05-10T08:21:32.750Z,100.00
2023-05-10T08:24:39.144Z,100.00
2023-05-10T08:27:40.772Z,100.00
2023-05-10T08:30:42.469Z,100.00
2023-05-10T08:33:44.786Z,97.55
2023-05-10T08:36:46.647Z,96.29
2023-05-10T08:39:51.133Z,90.22
2023-05-10T08:42:59.457Z,94.37
2023-05-10T08:46:04.069Z,91.84
2023-05-10T08:49:07.875Z,95.53
2023-05-10T08:52:13.731Z,100.00
2023-05-10T08:55:16.957Z,100.00
2023-05-10T08:58:20.587Z,100.00
2023-05-10T09:01:22.582Z,100.00
2023-05-10T09:04:24.608Z,97.71
2023-05-10T09:07:26.764Z,98.45
2023-05-10T09:10:29.621Z,100.00
2023-05-10T09:13:32.102Z,100.00
2023-05-10T09:16:33.851Z,97.74
2023-05-10T09:19:35.586Z,96.69
2023-05-10T09:22:38.802Z,96.32
2023-05-10T09:25:42.672Z,95.59
2023-05-10T09:28:53.290Z,93.76
2023-05-10T09:31:57.743Z,95.85
2023-05-10T09:35:07.474Z,94.43
2023-05-10T09:38:09.287Z,94.44
2023-05-10T09:41:18.390Z,92.75
2023-05-10T09:44:20.586Z,93.52
2023-05-10T09:47:22.360Z,92.48
2023-05-10T09:50:24.802Z,94.24
2023-05-10T09:53:26.470Z,96.10
2023-05-10T09:56:40.051Z,98.05
2023-05-10T09:59:44.248Z,98.38
2023-05-10T10:02:55.260Z,97.78
2023-05-10T10:05:57.101Z,95.67
2023-05-10T10:08:58.786Z,96.24
2023-05-10T10:12:04.791Z,99.50
2023-05-10T10:15:08.384Z,91.24
2023-05-10T10:18:14.141Z,87.94
2023-05-10T10:21:16.376Z,86.94
2023-05-10T10:24:18.046Z,88.05
2023-05-10T10:27:29.430Z,87.38
2023-05-10T10:30:43.829Z,88.57
2023-05-10T10:34:00.381Z,90.24
2023-05-10T10:37:06.714Z,87.41
2023-05-10T10:40:33.633Z,86.50
2023-05-10T10:43:36.628Z,80.92
2023-05-10T10:47:27.844Z,74.99
2023-05-10T10:50:29.759Z,68.93
2023-05-10T10:53:31.615Z,68.75
2023-05-10T10:56:34.356Z,69.82
2023-05-10T10:59:37.501Z,69.82
2023-05-10T11:02:42.579Z,65.99
2023-05-10T11:05:46.808Z,67.07
2023-05-10T11:08:48.849Z,65.77
2023-05-10T11:11:56.295Z,70.39
2023-05-10T11:14:58.830Z,70.31
2023-05-10T11:18:01.265Z,72.63
2023-05-10T11:21:04.325Z,70.28
2023-05-10T11:24:14.914Z,72.71
2023-05-10T11:27:16.653Z,68.18
2023-05-10T11:30:18.703Z,65.81
2023-05-10T11:33:20.990Z,56.28
2023-05-10T11:36:28.485Z,54.41
2023-05-10T11:39:32.080Z,49.84
2023-05-10T11:42:34.575Z,56.49
2023-05-10T11:45:36.674Z,58.55
2023-05-10T11:48:42.841Z,53.01
2023-05-10T11:51:44.676Z,54.98
2023-05-10T11:54:52.249Z,57.39
2023-05-10T11:57:55.044Z,59.94
2023-05-10T12:00:57.008Z,56.50
2023-05-10T12:04:01.141Z,55.77
2023-05-10T12:07:03.289Z,53.81
2023-05-10T12:10:06.221Z,53.96
2023-05-10T12:13:13.801Z,57.29
2023-05-10T12:16:21.654Z,56.45
2023-05-10T12:19:23.613Z,59.08
2023-05-10T12:22:25.634Z,61.02
2023-05-10T12:25:32.260Z,56.98
2023-05-10T12:28:34.361Z,56.67
2023-05-10T12:31:50.780Z,56.02
2023-05-10T12:34:54.345Z,57.12
2023-05-10T12:37:55.964Z,54.78
2023-05-10T12:41:01.754Z,59.69
2023-05-10T12:44:03.375Z,59.35
2023-05-10T12:47:05.105Z,59.35
2023-05-10T12:50:07.379Z,58.51
2023-05-10T12:53:09.651Z,59.59
2023-05-10T12:56:11.493Z,61.91
2023-05-10T12:59:13.150Z,59.60
2023-05-10T13:02:15.677Z,58.39
2023-05-10T13:05:17.378Z,59.07
2023-05-10T13:08:19.101Z,59.56
2023-05-10T13:11:21.142Z,57.06
2023-05-10T13:14:22.942Z,58.60
2023-05-10T13:17:26.362Z,56.43
2023-05-10T13:20:28.296Z,57.44
2023-05-10T13:23:29.902Z,56.10
2023-05-10T13:26:31.519Z,53.43
2023-05-10T13:29:33.150Z,53.09
2023-05-10T13:32:35.063Z,53.47
2023-05-10T13:35:36.927Z,54.02
2023-05-10T13:38:38.682Z,51.54
2023-05-10T13:41:40.678Z,53.50
2023-05-10T13:44:42.528Z,54.80
2023-05-10T13:47:44.524Z,50.77
2023-05-10T13:50:47.186Z,49.26
2023-05-10T13:53:49.079Z,47.79
2023-05-10T13:56:50.928Z,51.19
2023-05-10T13:59:54.042Z,52.57
2023-05-10T14:02:56.543Z,54.30
2023-05-10T14:05:59.044Z,54.02
2023-05-10T14:09:00.749Z,53.69
2023-05-10T14:12:03.202Z,54.14
2023-05-10T14:15:07.693Z,56.57
2023-05-10T14:18:09.801Z,55.79
2023-05-10T14:21:11.579Z,54.35
2023-05-10T14:24:13.253Z,53.21
2023-05-10T14:27:15.121Z,54.18
2023-05-10T14:30:17.056Z,53.69
2023-05-10T14:33:18.821Z,55.33
2023-05-10T14:36:20.543Z,52.35
2023-05-10T14:39:22.256Z,55.48
2023-05-10T14:42:23.898Z,52.81
2023-05-10T14:45:25.596Z,53.47
2023-05-10T14:48:27.251Z,55.44
2023-05-10T14:51:28.977Z,55.37
2023-05-10T14:54:31.037Z,54.57
2023-05-10T14:57:33.398Z,53.81
2023-05-10T15:00:37.549Z,55.56
2023-05-10T15:03:39.623Z,63.61
2023-05-10T15:06:42.012Z,65.11
2023-05-10T15:09:43.941Z,65.84
2023-05-10T15:12:45.579Z,69.55
2023-05-10T15:15:47.239Z,72.96
2023-05-10T15:18:49.426Z,74.63
2023-05-10T15:21:51.105Z,77.34
2023-05-10T15:24:52.720Z,80.65
2023-05-10T15:27:54.385Z,78.73
2023-05-10T15:30:57.207Z,79.71
2023-05-10T15:34:02.218Z,80.43
2023-05-10T15:37:03.898Z,80.24
2023-05-10T15:40:06.551Z,79.08
2023-05-10T15:43:08.381Z,80.86
2023-05-10T15:46:10.027Z,80.70
2023-05-10T15:49:11.731Z,82.72
2023-05-10T15:52:13.408Z,84.63
2023-05-10T15:55:15.488Z,83.19
2023-05-10T15:58:17.423Z,85.31
2023-05-10T16:01:19.285Z,82.70
2023-05-10T16:04:21.168Z,84.51
2023-05-10T16:07:23.340Z,84.45
2023-05-10T16:10:24.998Z,86.79
2023-05-10T16:13:27.034Z,88.12
2023-05-10T16:16:28.962Z,90.90
2023-05-10T16:19:33.679Z,93.02
2023-05-10T16:22:35.860Z,93.85
2023-05-10T16:25:37.703Z,92.72
2023-05-10T16:28:40.976Z,91.00
2023-05-10T16:31:44.112Z,93.35
2023-05-10T16:34:45.886Z,95.74
2023-05-10T16:37:47.730Z,89.53
2023-05-10T16:40:49.459Z,88.43
2023-05-10T16:43:51.721Z,87.81
2023-05-10T16:46:54.924Z,86.63
2023-05-10T16:49:56.806Z,84.24
2023-05-10T16:52:58.669Z,79.52
2023-05-10T16:56:00.624Z,80.12
2023-05-10T16:59:02.326Z,77.95
2023-05-10T17:02:04.200Z,77.05
2023-05-10T17:05:06.169Z,79.23
2023-05-10T17:08:07.808Z,78.78
2023-05-10T17:11:09.442Z,74.91
2023-05-10T17:14:12.347Z,73.15
2023-05-10T17:17:14.002Z,75.93
2023-05-10T17:20:16.730Z,74.93
2023-05-10T17:23:18.476Z,72.08
2023-05-10T17:26:20.244Z,73.38
2023-05-10T17:29:22.040Z,76.03
2023-05-10T17:32:23.765Z,73.17
2023-05-10T17:35:25.755Z,73.40
2023-05-10T17:38:27.460Z,74.69
2023-05-10T17:41:29.088Z,71.79
2023-05-10T17:44:30.767Z,72.81
2023-05-10T17:47:32.532Z,73.13
2023-05-10T17:50:34.283Z,73.40
2023-05-10T17:53:35.959Z,73.12
2023-05-10T17:56:37.653Z,73.91
2023-05-10T17:59:39.244Z,73.79
2023-05-10T18:02:41.073Z,75.66
2023-05-10T18:05:42.911Z,74.05
2023-05-10T18:08:45.147Z,78.96
2023-05-10T18:11:46.779Z,81.26
2023-05-10T18:14:48.414Z,82.28
2023-05-10T18:17:50.699Z,83.54
2023-05-10T18:20:56.678Z,84.95
2023-05-10T18:23:58.368Z,85.42
2023-05-10T18:27:00.412Z,85.74
2023-05-10T18:30:02.339Z,86.13
2023-05-10T18:33:04.190Z,89.08
2023-05-10T18:36:06.011Z,90.49
2023-05-10T18:39:08.434Z,89.57
2023-05-10T18:42:10.302Z,89.61
2023-05-10T18:45:13.171Z,90.57
2023-05-10T18:48:14.821Z,91.15
2023-05-10T18:51:16.488Z,87.97
2023-05-10T18:54:18.181Z,90.57
2023-05-10T18:57:21.205Z,90.08
2023-05-10T19:00:22.979Z,89.82
2023-05-10T19:03:24.757Z,88.93
2023-05-10T19:06:26.389Z,88.65
2023-05-10T19:09:28.814Z,89.80
2023-05-10T19:12:30.610Z,89.06
2023-05-10T19:15:33.020Z,89.06
2023-05-10T19:18:34.880Z,89.61
2023-05-10T19:21:37.122Z,89.61
2023-05-10T19:24:38.809Z,88.71
2023-05-10T19:27:40.436Z,90.49
2023-05-10T19:30:42.008Z,91.42
2023-05-10T19:33:43.689Z,93.63
2023-05-10T19:36:45.318Z,92.91
2023-05-10T19:39:47.283Z,95.34
2023-05-10T19:42:48.916Z,96.69
2023-05-10T19:45:50.638Z,98.12
2023-05-10T19:48:52.316Z,97.42
2023-05-10T19:51:53.982Z,97.10
2023-05-10T19:54:55.704Z,95.38
2023-05-10T19:57:58.084Z,95.37
2023-05-10T20:01:00.017Z,95.15
2023-05-10T20:04:01.920Z,95.60
2023-05-10T20:07:03.767Z,92.56
2023-05-10T20:10:05.752Z,96.14
2023-05-10T20:13:07.712Z,93.77
2023-05-10T20:16:09.436Z,93.32
2023-05-10T20:19:12.306Z,95.79
2023-05-10T20:22:13.982Z,97.44
2023-05-10T20:25:17.287Z,98.98
2023-05-10T20:28:22.742Z,99.80
2023-05-10T20:31:24.498Z,96.35
2023-05-10T20:34:26.185Z,98.39
2023-05-10T20:37:28.260Z,97.49
2023-05-10T20:40:29.891Z,98.33
2023-05-10T20:43:31.584Z,99.59
2023-05-10T20:46:33.730Z,100.00
2023-05-10T20:49:37.781Z,99.92
2023-05-10T20:52:39.504Z,99.44
2023-05-10T20:55:41.138Z,99.06
2023-05-10T20:58:42.864Z,100.00
2023-05-10T21:01:45.405Z,99.14
2023-05-10T21:04:47.303Z,99.61
2023-05-10T21:07:49.541Z,98.17
2023-05-10T21:10:51.296Z,99.32
2023-05-10T21:13:52.971Z,96.96
2023-05-10T21:16:54.661Z,97.94
2023-05-10T21:19:56.329Z,99.39
2023-05-10T21:22:58.406Z,98.32
2023-05-10T21:26:00.595Z,98.99
2023-05-10T21:29:02.688Z,97.49
2023-05-10T21:32:05.082Z,98.42
2023-05-10T21:35:07.419Z,100.00
2023-05-10T21:38:09.793Z,98.82
2023-05-10T21:41:11.510Z,99.08
2023-05-10T21:44:13.364Z,98.28
2023-05-10T21:47:14.996Z,98.61
2023-05-10T21:50:16.723Z,98.94
2023-05-10T21:53:18.469Z,98.54
2023-05-10T21:56:20.068Z,98.06
2023-05-10T21:59:21.757Z,98.47
2023-05-10T22:02:23.921Z,98.44
2023-05-10T22:05:25.542Z,99.20
2023-05-10T22:08:27.306Z,99.64
2023-05-10T22:11:28.986Z,99.79
2023-05-10T22:14:30.875Z,99.97
2023-05-10T22:17:32.561Z,100.00
2023-05-10T22:20:34.208Z,99.93
2023-05-10T22:23:36.084Z,99.00
2023-05-10T22:26:37.657Z,98.82
2023-05-10T22:29:39.259Z,98.03
2023-05-10T22:32:40.877Z,98.27
2023-05-10T22:35:42.515Z,98.68
2023-05-10T22:38:44.148Z,98.89
2023-05-10T22:41:45.779Z,99.96
2023-05-10T22:44:47.377Z,98.20
2023-05-10T22:47:49.026Z,99.80
2023-05-10T22:50:50.834Z,99.44
2023-05-10T22:53:52.611Z,99.25
2023-05-10T22:56:54.703Z,99.67
2023-05-10T22:59:56.421Z,100.00
2023-05-10T23:02:58.178Z,99.55
2023-05-10T23:05:59.827Z,99.80
2023-05-10T23:09:01.504Z,97.37
2023-05-10T23:12:03.496Z,96.18
2023-05-10T23:15:06.153Z,97.33
2023-05-10T23:18:09.726Z,97.62
2023-05-10T23:21:11.448Z,98.91
2023-05-10T23:24:13.584Z,99.44
2023-05-10T23:27:15.302Z,99.21
2023-05-10T23:30:17.301Z,98.24
2023-05-10T23:33:19.227Z,97.87
2023-05-10T23:36:20.914Z,98.56
2023-05-10T23:39:25.220Z,98.58
2023-05-10T23:42:26.835Z,99.29
2023-05-10T23:45:28.571Z,99.88
2023-05-10T23:48:30.250Z,99.15
2023-05-10T23:51:32.815Z,98.26
2023-05-10T23:54:34.532Z,99.08
